Heat Index SAI AWOS Graphical Display Untitled Document
Bertrand Chaffee Hospital Heliport (2NK6) Springville, New York, USA
150
04:21
23/12/2014
06
N/A
120V180
29.99
N/A
1420
35(F), 2(C)
30(F), -1(C)
30 F
83%
BKN014 BKN031 OVC045
10
N/A
0"
N/A
04:21 zulu Wind 150 at 06 Knots, Altimeter 29.99
METAR K2NK6 230421Z AUTO 15006KT 120V180 10SM BKN014 BKN031 OVC045 02/M01 A2999 A02 P0000
METAR:
FAA Disclaimer--Advisory Use ONLY, not for flight info--
INFO:
Wind Direction:
Wind Speed:
Wind Gust:
Wind Variable:
Altimeter:
Dens Alt:
Elev:
Temp:
Dwpt:
Wind Chill
Rel Humidity:
Ceiling:
Visibility:
Prsnt Wea:
PCPN:
Remarks:
How to read the WebPage